Time;durP1;ratioP1;P1;durP2;ratioP2;P2;SDS_P1;SDS_P2;PMS_P1;PMS_P2;Temp;Humidity;BMP_temperature;BMP_pressure;BME280_temperature;BME280_humidity;BME280_pressure;Samples;Min_cycle;Max_cycle;Signal;HPM_P1;HPM_P2
2021/01/16 00:02:14;;;;;;;54.58;25.65;;;;;;;0.06;100.00;103022.88;5185319;28;20053;-69
2021/01/16 00:04:44;;;;;;;52.47;24.48;;;;;;;0.05;100.00;103024.66;5202447;28;20028;-68
2021/01/16 00:07:15;;;;;;;62.30;24.73;;;;;;;0.04;100.00;103020.25;5188674;28;20030;-68
2021/01/16 00:09:45;;;;;;;62.58;26.45;;;;;;;0.04;100.00;103022.91;5191161;28;20427;-69
2021/01/16 00:12:16;;;;;;;59.05;25.70;;;;;;;0.02;100.00;103018.59;5181495;28;20029;-68
2021/01/16 00:14:46;;;;;;;59.20;25.48;;;;;;;0.01;100.00;103020.38;5182095;28;20462;-69
2021/01/16 00:17:17;;;;;;;67.70;29.05;;;;;;;0.01;100.00;103017.72;5175466;28;20054;-69
2021/01/16 00:19:47;;;;;;;63.13;27.83;;;;;;;0.02;100.00;103013.31;5175504;28;20335;-69
2021/01/16 00:22:18;;;;;;;65.90;27.55;;;;;;;0.02;100.00;103008.91;5181491;28;20118;-68
2021/01/16 00:24:48;;;;;;;65.82;28.23;;;;;;;0.04;100.00;103006.19;5168521;28;20469;-68
2021/01/16 00:27:19;;;;;;;61.30;27.63;;;;;;;0.03;100.00;102994.78;5191165;28;20037;-68
2021/01/16 00:29:49;;;;;;;61.05;26.38;;;;;;;0.01;100.00;103001.88;5199198;28;20104;-68
2021/01/16 00:32:20;;;;;;;68.97;28.05;;;;;;;0.03;100.00;103007.13;5181180;28;20507;-69
2021/01/16 00:34:50;;;;;;;66.55;27.58;;;;;;;0.05;100.00;103000.91;5198577;28;20141;-68
2021/01/16 00:37:21;;;;;;;62.30;25.58;;;;;;;0.03;100.00;103005.34;5198591;28;20022;-68
2021/01/16 00:39:51;;;;;;;60.85;25.20;;;;;;;0.03;100.00;103005.34;5180765;28;20390;-69
2021/01/16 00:42:22;;;;;;;57.63;25.33;;;;;;;0.04;100.00;103001.78;5181203;28;20762;-68
2021/01/16 00:44:52;;;;;;;60.38;25.23;;;;;;;0.07;100.00;103006.97;5167738;28;20483;-68
2021/01/16 00:47:23;;;;;;;67.03;26.60;;;;;;;0.07;100.00;103006.97;5181643;28;20508;-68
2021/01/16 00:49:53;;;;;;;67.22;26.05;;;;;;;0.07;100.00;103006.97;5190479;28;20032;-69
2021/01/16 00:52:23;;;;;;;62.88;26.60;;;;;;;0.07;100.00;103003.47;5201125;28;20512;-69
2021/01/16 00:54:54;;;;;;;69.70;26.65;;;;;;;0.07;100.00;103003.47;5192087;28;20018;-68
2021/01/16 00:57:27;;;;;;;56.75;23.75;;;;;;;0.08;100.00;102992.88;5183825;28;20029;-68
2021/01/16 00:59:58;;;;;;;65.55;26.00;;;;;;;0.07;100.00;102996.41;5202261;28;20021;-68
2021/01/16 01:02:28;;;;;;;60.25;25.10;;;;;;;0.08;100.00;102995.50;5195929;28;20100;-68
2021/01/16 01:04:59;;;;;;;52.92;22.58;;;;;;;0.09;100.00;102994.59;5180981;28;20471;-68
2021/01/16 01:07:29;;;;;;;57.08;23.38;;;;;;;0.09;100.00;102988.44;5181106;28;20026;-69
2021/01/16 01:10:00;;;;;;;63.40;24.08;;;;;;;0.08;100.00;102992.00;5180388;28;20109;-68
2021/01/16 01:12:30;;;;;;;64.18;24.88;;;;;;;0.09;100.00;102980.53;5181093;28;20061;-68
2021/01/16 01:15:01;;;;;;;53.75;25.02;;;;;;;0.10;100.00;102980.50;5194724;28;20033;-68
2021/01/16 01:17:31;;;;;;;55.17;24.02;;;;;;;0.13;100.00;102974.25;5184780;28;20026;-68
2021/01/16 01:20:04;;;;;;;58.80;24.20;;;;;;;0.13;100.00;102969.84;5192029;28;20036;-69
2021/01/16 01:22:35;;;;;;;53.90;23.98;;;;;;;0.13;100.00;102975.13;5200371;28;20034;-68
2021/01/16 01:25:07;;;;;;;57.15;22.98;;;;;;;0.13;100.00;102980.41;5169433;28;20419;-68
2021/01/16 01:27:37;;;;;;;48.97;20.15;;;;;;;0.10;100.00;102976.97;5192979;28;20035;-68
2021/01/16 01:30:09;;;;;;;54.08;22.13;;;;;;;0.08;100.00;102976.16;5200918;28;20025;-69
2021/01/16 01:32:42;;;;;;;55.78;22.20;;;;;;;0.01;100.00;102983.41;5200342;28;20124;-68
2021/01/16 01:35:14;;;;;;;49.70;21.88;;;;;;;-0.01;100.00;102977.31;5167048;28;20026;-68
2021/01/16 01:37:47;;;;;;;57.00;23.10;;;;;;;-0.02;100.00;102970.31;5187844;28;20051;-69
2021/01/16 01:40:19;;;;;;;51.70;22.02;;;;;;;-0.02;100.00;102976.44;5180472;28;20022;-68
2021/01/16 01:42:51;;;;;;;56.03;23.95;;;;;;;-0.01;100.00;102966.75;5179905;28;20141;-68
2021/01/16 01:45:23;;;;;;;51.15;23.00;;;;;;;-0.02;100.00;102971.16;5179917;28;20033;-68
2021/01/16 01:47:54;;;;;;;56.05;23.63;;;;;;;0.00;100.00;102968.50;5180383;28;20106;-68
2021/01/16 01:50:24;;;;;;;54.70;23.02;;;;;;;0.01;100.00;102969.38;5192629;28;20025;-69
2021/01/16 01:52:56;;;;;;;54.13;21.90;;;;;;;0.04;100.00;102956.91;5199966;28;20029;-68
2021/01/16 01:55:27;;;;;;;59.70;24.77;;;;;;;0.04;100.00;102958.69;5199927;28;20510;-69
2021/01/16 01:57:59;;;;;;;55.75;22.08;;;;;;;0.05;100.00;102955.13;5180323;28;20017;-68
2021/01/16 02:00:30;;;;;;;57.55;22.17;;;;;;;0.04;100.00;102961.34;5180237;28;20036;-68
2021/01/16 02:03:03;;;;;;;57.78;21.67;;;;;;;0.03;100.00;102962.25;5189876;28;20100;-69
2021/01/16 02:05:35;;;;;;;52.17;21.40;;;;;;;0.00;100.00;102965.88;5201423;28;20021;-68
2021/01/16 02:08:05;;;;;;;60.83;22.55;;;;;;;0.02;100.00;102961.38;5201435;28;20026;-68
2021/01/16 02:10:45;;;;;;;53.45;21.67;;;;;;;0.02;100.00;102957.88;5194961;28;20480;-68
2021/01/16 02:13:16;;;;;;;61.15;23.73;;;;;;;0.04;100.00;102958.69;5193525;28;20337;-68
2021/01/16 02:15:55;;;;;;;48.95;22.48;;;;;;;0.03;100.00;102957.84;5181333;28;20050;-68
2021/01/16 02:18:31;;;;;;;54.85;22.65;;;;;;;0.03;100.00;102963.13;5168897;28;20025;-68
2021/01/16 02:21:04;;;;;;;57.17;22.70;;;;;;;0.04;100.00;102958.69;5181165;28;20529;-68
2021/01/16 02:23:43;;;;;;;59.70;23.90;;;;;;;0.05;100.00;102965.69;5179969;28;20369;-69
2021/01/16 02:26:17;;;;;;;53.97;22.33;;;;;;;0.05;100.00;102963.06;5180767;28;20040;-68
2021/01/16 02:28:51;;;;;;;54.50;22.77;;;;;;;0.05;100.00;102955.13;5189942;28;20079;-68
2021/01/16 02:31:27;;;;;;;53.00;21.65;;;;;;;0.02;100.00;102963.16;5201254;28;20029;-68
2021/01/16 02:34:01;;;;;;;56.47;21.63;;;;;;;0.05;100.00;102961.31;5200470;28;20097;-68
2021/01/16 02:36:55;;;;;;;55.83;20.92;;;;;;;0.01;100.00;102954.38;5201334;28;20021;-68
2021/01/16 02:39:43;;;;;;;48.75;20.65;;;;;;;0.01;100.00;102959.66;5178970;28;20033;-68
2021/01/16 02:42:24;;;;;;;49.30;20.38;;;;;;;0.03;100.00;102956.97;5181750;28;20395;-68
2021/01/16 02:45:04;;;;;;;45.85;19.48;;;;;;;0.03;100.00;102947.28;5167009;28;20030;-67
2021/01/16 02:47:48;;;;;;;53.50;20.85;;;;;;;0.03;100.00;102946.41;5180338;28;20026;-69
2021/01/16 02:50:21;;;;;;;50.38;20.02;;;;;;;0.04;100.00;102943.72;5180894;28;20018;-68
2021/01/16 02:52:55;;;;;;;54.47;20.70;;;;;;;0.07;100.00;102930.44;5179804;28;20113;-68
2021/01/16 02:55:27;;;;;;;53.40;21.67;;;;;;;0.09;100.00;102930.38;5180394;28;20029;-68
2021/01/16 02:57:58;;;;;;;51.33;20.38;;;;;;;0.07;100.00;102933.09;5180798;28;20211;-68
2021/01/16 03:00:29;;;;;;;50.50;21.45;;;;;;;0.06;100.00;102928.72;5183502;28;20029;-68
2021/01/16 03:03:00;;;;;;;45.85;19.83;;;;;;;0.06;100.00;102923.44;5183950;28;20033;-68
2021/01/16 03:05:31;;;;;;;49.08;19.58;;;;;;;0.08;100.00;102931.31;5184461;28;20342;-68
2021/01/16 03:08:03;;;;;;;53.85;22.35;;;;;;;0.07;100.00;102922.53;5184749;28;20028;-68
2021/01/16 03:10:34;;;;;;;44.67;19.67;;;;;;;0.08;100.00;102932.16;5183314;28;20018;-68
2021/01/16 03:13:06;;;;;;;52.63;21.10;;;;;;;0.08;100.00;102921.59;5183754;28;20025;-69
2021/01/16 03:15:38;;;;;;;49.20;20.45;;;;;;;0.09;100.00;102918.03;5184136;28;20092;-68
2021/01/16 03:18:17;;;;;;;48.97;19.13;;;;;;;0.08;100.00;102923.38;5197570;28;20076;-68
2021/01/16 03:20:48;;;;;;;51.00;21.85;;;;;;;0.04;100.00;102919.97;5204505;28;20060;-68
2021/01/16 03:23:19;;;;;;;60.83;21.90;;;;;;;0.02;100.00;102911.25;5193192;28;20033;-68
2021/01/16 03:25:49;;;;;;;55.13;21.65;;;;;;;0.04;100.00;102913.81;5172216;28;20368;-68
2021/01/16 03:28:19;;;;;;;49.28;21.88;;;;;;;0.04;100.00;102905.91;5202450;28;20025;-68
2021/01/16 03:30:50;;;;;;;55.75;21.83;;;;;;;0.03;100.00;102897.13;5192694;28;20021;-69
2021/01/16 03:33:20;;;;;;;47.33;20.10;;;;;;;0.05;100.00;102897.97;5182942;28;20476;-69
2021/01/16 03:35:51;;;;;;;48.63;20.17;;;;;;;0.06;100.00;102898.84;5183222;28;20041;-68
2021/01/16 03:38:21;;;;;;;43.85;19.80;;;;;;;0.05;100.00;102889.16;5181105;28;20072;-68
2021/01/16 03:40:52;;;;;;;53.70;22.23;;;;;;;0.01;100.00;102880.50;5183696;28;20079;-68
2021/01/16 03:43:22;;;;;;;50.65;21.23;;;;;;;0.01;100.00;102880.50;5191636;28;20540;-69
2021/01/16 03:45:53;;;;;;;46.45;20.23;;;;;;;0.02;100.00;102890.13;5201559;28;20029;-68
2021/01/16 03:48:23;;;;;;;46.20;20.40;;;;;;;0.05;100.00;102881.25;5183664;28;20483;-68
2021/01/16 03:50:54;;;;;;;50.13;19.25;;;;;;;0.05;100.00;102881.25;5183418;28;20025;-69
2021/01/16 03:53:24;;;;;;;50.22;20.50;;;;;;;0.02;100.00;102890.13;5194652;28;20022;-70
2021/01/16 03:55:55;;;;;;;49.17;19.48;;;;;;;-0.01;100.00;102887.56;5204061;28;20033;-70
2021/01/16 03:58:25;;;;;;;47.05;20.05;;;;;;;-0.04;100.00;102883.28;5203967;28;20155;-69
2021/01/16 04:00:56;;;;;;;48.42;21.27;;;;;;;-0.03;100.00;102879.72;5203828;28;20340;-69
2021/01/16 04:03:26;;;;;;;44.58;19.83;;;;;;;-0.01;100.00;102884.94;5203262;28;20364;-69
2021/01/16 04:05:57;;;;;;;48.30;19.55;;;;;;;0.02;100.00;102889.28;5203640;28;20049;-70
2021/01/16 04:08:27;;;;;;;46.05;19.02;;;;;;;0.01;100.00;102882.28;5189518;28;20022;-69
2021/01/16 04:10:58;;;;;;;48.40;21.88;;;;;;;-0.01;100.00;102887.56;5182647;28;20028;-69
2021/01/16 04:13:30;;;;;;;49.97;20.48;;;;;;;-0.01;100.00;102890.22;5185264;28;20053;-69
2021/01/16 04:16:00;;;;;;;48.83;21.25;;;;;;;-0.02;100.00;102885.84;5204034;28;20422;-69
2021/01/16 04:18:31;;;;;;;48.90;21.63;;;;;;;-0.03;100.00;102879.72;5175387;28;20036;-69
2021/01/16 04:21:03;;;;;;;50.05;20.25;;;;;;;-0.05;100.00;102878.03;5183081;28;20049;-70
2021/01/16 04:23:33;;;;;;;56.75;20.77;;;;;;;-0.05;100.00;102873.63;5176735;28;20022;-69
2021/01/16 04:26:04;;;;;;;44.97;19.95;;;;;;;-0.05;100.00;102867.47;5175492;28;20561;-70
2021/01/16 04:28:34;;;;;;;46.03;19.55;;;;;;;-0.01;100.00;102877.03;5183568;28;20021;-69
2021/01/16 04:31:05;;;;;;;52.08;20.55;;;;;;;-0.02;100.00;102862.97;5182813;28;20413;-69
2021/01/16 04:33:35;;;;;;;49.30;20.88;;;;;;;0.01;100.00;102858.53;5182571;28;20030;-67
2021/01/16 04:36:06;;;;;;;48.80;19.45;;;;;;;0.05;100.00;102863.66;5182167;28;20468;-67
2021/01/16 04:38:37;;;;;;;52.75;20.75;;;;;;;0.05;100.00;102857.50;5180637;28;20438;-67
2021/01/16 04:41:09;;;;;;;47.83;19.25;;;;;;;0.06;100.00;102862.75;5186013;28;20021;-67
2021/01/16 04:43:40;;;;;;;42.08;19.13;;;;;;;0.04;100.00;102854.00;5203007;28;20360;-68
2021/01/16 04:46:13;;;;;;;47.72;19.52;;;;;;;0.06;100.00;102854.81;5203228;28;20035;-66
2021/01/16 04:48:49;;;;;;;51.10;20.63;;;;;;;0.07;100.00;102856.53;5202993;28;20545;-68
2021/01/16 04:51:21;;;;;;;44.45;18.83;;;;;;;0.09;100.00;102856.47;5202938;28;20045;-66
2021/01/16 04:53:56;;;;;;;42.80;18.02;;;;;;;0.09;100.00;102849.44;5202324;28;20033;-66
2021/01/16 04:56:29;;;;;;;43.70;18.25;;;;;;;0.09;100.00;102849.44;5194397;28;20136;-67
2021/01/16 04:59:01;;;;;;;42.53;17.83;;;;;;;0.10;100.00;102843.25;5182119;28;20483;-67
2021/01/16 05:01:31;;;;;;;49.13;19.88;;;;;;;0.11;100.00;102830.94;5182611;28;20112;-66
2021/01/16 05:04:02;;;;;;;47.47;19.55;;;;;;;0.12;100.00;102825.59;5181578;28;20101;-68
2021/01/16 05:06:38;;;;;;;44.15;19.15;;;;;;;0.13;100.00;102822.03;5194595;28;20434;-67
2021/01/16 05:09:08;;;;;;;49.72;18.95;;;;;;;0.10;100.00;102818.63;5202910;28;20033;-67
2021/01/16 05:11:42;;;;;;;53.47;20.75;;;;;;;0.10;100.00;102810.69;5188849;28;20041;-67
2021/01/16 05:14:16;;;;;;;54.63;21.77;;;;;;;0.09;100.00;102804.56;5181310;28;20032;-67
2021/01/16 05:16:58;;;;;;;50.75;20.27;;;;;;;0.06;100.00;102804.69;5180614;28;20492;-68
2021/01/16 05:19:30;;;;;;;53.92;19.05;;;;;;;0.05;100.00;102797.69;5172928;28;20033;-67
2021/01/16 05:22:02;;;;;;;45.58;20.00;;;;;;;0.05;100.00;102797.69;5178754;28;20497;-67
2021/01/16 05:24:32;;;;;;;49.60;20.77;;;;;;;0.06;100.00;102791.47;5164432;28;20045;-68
2021/01/16 05:27:05;;;;;;;43.78;19.45;;;;;;;0.05;100.00;102787.13;5203123;28;20021;-67
2021/01/16 05:29:36;;;;;;;41.42;18.25;;;;;;;0.05;100.00;102780.94;5202288;28;20029;-68
2021/01/16 05:32:06;;;;;;;44.55;18.88;;;;;;;0.03;100.00;102782.78;5202608;28;20056;-68
2021/01/16 05:34:37;;;;;;;46.28;18.58;;;;;;;0.03;100.00;102785.44;5200662;28;20490;-67
2021/01/16 05:37:07;;;;;;;44.00;20.00;;;;;;;0.04;100.00;102773.97;5192824;28;20030;-67
2021/01/16 05:39:38;;;;;;;47.25;20.90;;;;;;;0.05;100.00;102779.22;5178512;28;20402;-67
2021/01/16 05:42:09;;;;;;;46.28;18.60;;;;;;;0.03;100.00;102783.66;5182302;28;20502;-67
2021/01/16 05:44:40;;;;;;;47.83;19.05;;;;;;;0.02;100.00;102781.06;5185927;28;20474;-68
2021/01/16 05:47:11;;;;;;;43.55;18.73;;;;;;;-0.01;100.00;102774.97;5202263;28;20029;-67
2021/01/16 05:49:42;;;;;;;43.50;19.50;;;;;;;0.01;100.00;102772.31;5201928;28;20033;-68
2021/01/16 05:52:13;;;;;;;44.70;19.50;;;;;;;-0.01;100.00;102774.97;5202538;28;20453;-67
2021/01/16 05:54:44;;;;;;;50.60;19.58;;;;;;;0.01;100.00;102771.44;5201121;28;20487;-68
2021/01/16 05:57:16;;;;;;;49.22;19.05;;;;;;;0.01;100.00;102780.22;5201691;28;20056;-68
2021/01/16 05:59:54;;;;;;;48.15;19.95;;;;;;;0.02;100.00;102776.66;5191657;28;20034;-69
2021/01/16 06:02:29;;;;;;;45.50;19.27;;;;;;;0.04;100.00;102773.97;5199467;28;20374;-67
2021/01/16 06:04:59;;;;;;;53.38;20.00;;;;;;;0.02;100.00;102774.03;5201295;28;20029;-68
2021/01/16 06:07:36;;;;;;;48.70;19.98;;;;;;;0.01;100.00;102768.81;5195271;28;20537;-68
2021/01/16 06:10:13;;;;;;;51.38;19.17;;;;;;;0.01;100.00;102764.38;5195916;28;20084;-67
2021/01/16 06:12:43;;;;;;;49.17;20.73;;;;;;;0.01;100.00;102764.38;5201805;28;20517;-68
2021/01/16 06:15:17;;;;;;;46.92;19.58;;;;;;;0.03;100.00;102756.41;5201120;28;20021;-67
2021/01/16 06:17:49;;;;;;;46.05;19.27;;;;;;;0.02;100.00;102755.53;5181690;28;20828;-67
2021/01/16 06:20:21;;;;;;;48.95;19.85;;;;;;;0.01;100.00;102758.25;5172966;28;20416;-68
2021/01/16 06:22:52;;;;;;;45.17;18.38;;;;;;;0.02;100.00;102755.53;5161449;28;20641;-68
2021/01/16 06:25:23;;;;;;;44.13;19.60;;;;;;;0.04;100.00;102752.84;5179267;28;20029;-68
2021/01/16 06:28:03;;;;;;;49.85;20.73;;;;;;;0.06;100.00;102751.03;5179824;28;20404;-68
2021/01/16 06:30:34;;;;;;;47.13;18.58;;;;;;;0.05;100.00;102752.81;5178640;28;20022;-69
2021/01/16 06:33:05;;;;;;;47.40;19.17;;;;;;;0.05;100.00;102750.19;5182962;28;20032;-67
2021/01/16 06:35:41;;;;;;;52.88;20.88;;;;;;;0.05;100.00;102744.00;5203812;28;20029;-68
2021/01/16 06:38:12;;;;;;;41.75;18.90;;;;;;;0.02;100.00;102747.63;5201774;28;20052;-68
2021/01/16 06:40:52;;;;;;;45.20;19.45;;;;;;;0.02;100.00;102734.44;5203633;28;20030;-68
2021/01/16 06:43:24;;;;;;;43.40;19.90;;;;;;;-0.04;100.00;102735.50;5195880;28;20096;-68
2021/01/16 06:46:07;;;;;;;42.28;17.90;;;;;;;-0.08;100.00;102733.88;5185632;28;20061;-67
2021/01/16 06:48:39;;;;;;;44.40;18.40;;;;;;;-0.10;100.00;102730.44;5203467;28;20037;-67
2021/01/16 06:51:21;;;;;;;42.42;16.70;;;;;;;-0.10;100.00;102732.19;5203879;28;20136;-67
2021/01/16 06:53:52;;;;;;;49.65;18.58;;;;;;;-0.14;100.00;102727.97;5202474;28;20024;-68
2021/01/16 06:56:26;;;;;;;45.83;18.52;;;;;;;-0.15;100.00;102723.56;5204363;28;20037;-67
2021/01/16 06:58:58;;;;;;;46.22;18.20;;;;;;;-0.20;100.00;102718.47;5202816;28;20028;-68
2021/01/16 07:01:30;;;;;;;46.83;20.00;;;;;;;-0.20;100.00;102714.94;5204271;28;20041;-67
2021/01/16 07:04:04;;;;;;;48.88;19.75;;;;;;;-0.21;100.00;102721.16;5184949;28;20042;-67
2021/01/16 07:06:46;;;;;;;45.42;18.58;;;;;;;-0.20;100.00;102717.59;5183905;28;20408;-68
2021/01/16 07:09:20;;;;;;;44.45;18.73;;;;;;;-0.19;100.00;102712.28;5189692;28;20017;-68
2021/01/16 07:11:52;;;;;;;47.33;18.90;;;;;;;-0.18;100.00;102710.50;5189393;28;20042;-67
2021/01/16 07:14:23;;;;;;;51.00;18.92;;;;;;;-0.24;100.00;102703.66;5181726;28;20365;-68
2021/01/16 07:16:54;;;;;;;44.28;18.27;;;;;;;-0.22;100.00;102698.31;5182961;28;20149;-67
2021/01/16 07:19:25;;;;;;;47.85;18.42;;;;;;;-0.24;100.00;102703.66;5182146;28;20108;-68
2021/01/16 07:21:57;;;;;;;47.03;19.65;;;;;;;-0.22;100.00;102693.03;5182503;28;20117;-68
2021/01/16 07:24:27;;;;;;;48.78;17.67;;;;;;;-0.22;100.00;102696.53;5181156;28;20080;-67
2021/01/16 07:26:58;;;;;;;55.85;18.90;;;;;;;-0.20;100.00;102688.56;5181801;28;20431;-67
2021/01/16 07:29:28;;;;;;;44.00;17.35;;;;;;;-0.17;100.00;102689.34;5180914;28;20740;-67
2021/01/16 07:32:01;;;;;;;51.92;19.02;;;;;;;-0.18;100.00;102697.31;5175443;28;20021;-69
2021/01/16 07:34:32;;;;;;;44.63;18.75;;;;;;;-0.14;100.00;102689.25;5193740;28;20478;-69
2021/01/16 07:37:03;;;;;;;46.33;19.25;;;;;;;-0.12;100.00;102686.53;5200818;28;20036;-68
2021/01/16 07:39:34;;;;;;;46.58;19.42;;;;;;;-0.13;100.00;102688.31;5178383;28;20393;-68
2021/01/16 07:42:10;;;;;;;45.67;18.08;;;;;;;-0.16;100.00;102692.84;5193504;28;20172;-68
2021/01/16 07:44:44;;;;;;;43.50;17.13;;;;;;;-0.17;100.00;102691.13;5195659;28;20475;-69
2021/01/16 07:47:22;;;;;;;44.10;17.10;;;;;;;-0.15;100.00;102689.28;5182593;28;20492;-68
2021/01/16 07:49:55;;;;;;;46.40;16.63;;;;;;;-0.18;100.00;102689.41;5179162;28;20037;-68
2021/01/16 07:52:28;;;;;;;38.88;15.10;;;;;;;-0.16;100.00;102698.13;5181941;28;20029;-68
2021/01/16 07:55:07;;;;;;;37.75;15.32;;;;;;;-0.15;100.00;102697.19;5181305;28;20022;-68
2021/01/16 07:57:49;;;;;;;40.25;16.02;;;;;;;-0.11;100.00;102693.53;5182185;28;20096;-69
2021/01/16 08:00:22;;;;;;;44.53;16.45;;;;;;;-0.13;100.00;102690.97;5180353;28;20099;-68
2021/01/16 08:03:15;;;;;;;41.97;16.42;;;;;;;-0.16;100.00;102682.28;5201013;28;20395;-68
2021/01/16 08:05:56;;;;;;;42.28;15.40;;;;;;;-0.12;100.00;102682.13;5183893;28;20134;-69
2021/01/16 08:08:44;;;;;;;41.25;17.48;;;;;;;-0.08;100.00;102680.25;5181683;28;20057;-69
2021/01/16 08:11:25;;;;;;;38.00;16.52;;;;;;;-0.07;100.00;102669.63;5181876;28;20525;-68
2021/01/16 08:13:58;;;;;;;37.97;17.05;;;;;;;-0.05;100.00;102674.84;5179578;28;20049;-69
2021/01/16 08:16:29;;;;;;;45.15;17.80;;;;;;;-0.05;100.00;102669.56;5181357;28;20026;-68
2021/01/16 08:19:09;;;;;;;40.47;15.50;;;;;;;-0.03;100.00;102676.53;5187331;28;20371;-68
2021/01/16 08:21:52;;;;;;;35.42;14.90;;;;;;;-0.02;100.00;102666.84;5188463;28;20364;-68
2021/01/16 08:24:25;;;;;;;37.95;15.68;;;;;;;0.03;100.00;102657.00;5177720;28;20044;-68
2021/01/16 08:26:58;;;;;;;37.97;15.02;;;;;;;-0.03;100.00;102657.22;5179783;28;20101;-69
2021/01/16 08:29:31;;;;;;;34.05;13.23;;;;;;;-0.07;100.00;102653.81;5180903;28;20471;-68
2021/01/16 08:32:11;;;;;;;42.47;15.20;;;;;;;-0.04;100.00;102655.50;5200137;28;20494;-69
2021/01/16 08:34:51;;;;;;;33.30;13.80;;;;;;;-0.06;100.00;102658.16;5197562;28;20036;-68
2021/01/16 08:37:30;;;;;;;39.53;14.80;;;;;;;-0.01;100.00;102647.44;5190704;28;20029;-68
2021/01/16 08:40:05;;;;;;;32.63;13.40;;;;;;;-0.02;100.00;102645.72;5200158;28;20036;-68
2021/01/16 08:42:51;;;;;;;33.22;15.45;;;;;;;0.04;100.00;102634.94;5186596;28;20033;-68
2021/01/16 08:45:21;;;;;;;31.45;13.20;;;;;;;0.11;100.00;102635.63;5191697;28;20025;-69
2021/01/16 08:47:54;;;;;;;34.35;13.40;;;;;;;0.15;100.00;102634.56;5183571;28;20403;-68
2021/01/16 08:50:30;;;;;;;31.65;13.25;;;;;;;0.27;100.00;102630.63;5188770;28;20491;-69
2021/01/16 08:53:20;;;;;;;28.80;12.25;;;;;;;0.27;100.00;102631.50;5200079;28;20029;-68
2021/01/16 08:55:51;;;;;;;33.90;12.90;;;;;;;0.40;100.00;102629.25;5184632;28;20495;-68
2021/01/16 08:58:27;;;;;;;28.80;12.75;;;;;;;0.46;100.00;102634.31;5180140;28;20029;-69
2021/01/16 09:00:58;;;;;;;27.48;11.63;;;;;;;0.48;100.00;102628.03;5197878;28;20036;-68
2021/01/16 09:03:28;;;;;;;27.58;11.93;;;;;;;0.57;100.00;102632.13;5199424;28;20293;-68
2021/01/16 09:06:01;;;;;;;27.60;11.38;;;;;;;0.61;100.00;102624.97;5193892;28;20033;-68
2021/01/16 09:08:32;;;;;;;21.83;9.88;;;;;;;0.63;100.00;102631.88;5179928;28;20033;-68
2021/01/16 09:11:13;;;;;;;20.13;9.27;;;;;;;0.70;100.00;102628.09;5186862;28;20052;-68
2021/01/16 09:13:45;;;;;;;21.00;9.20;;;;;;;0.77;100.00;102629.59;5196027;28;20026;-69
2021/01/16 09:16:33;;;;;;;19.05;8.15;;;;;;;0.83;100.00;102622.34;5178682;28;20034;-68
2021/01/16 09:19:04;;;;;;;17.45;8.50;;;;;;;0.92;100.00;102617.56;5172926;28;20028;-68
2021/01/16 09:21:35;;;;;;;18.27;8.00;;;;;;;1.05;100.00;102617.91;5199234;28;20041;-68
2021/01/16 09:24:21;;;;;;;14.10;6.53;;;;;;;1.08;100.00;102611.66;5180912;28;20025;-69
2021/01/16 09:26:51;;;;;;;19.65;8.00;;;;;;;1.01;100.00;102618.97;5196497;28;20057;-68
2021/01/16 09:29:27;;;;;;;20.73;7.80;;;;;;;0.99;100.00;102620.81;5200230;28;20064;-69
2021/01/16 09:31:57;;;;;;;19.13;9.18;;;;;;;0.98;100.00;102621.72;5166204;28;20025;-69
2021/01/16 09:34:35;;;;;;;21.70;8.88;;;;;;;1.00;100.00;102619.88;5194511;28;20063;-68
2021/01/16 09:37:05;;;;;;;18.98;8.65;;;;;;;0.99;100.00;102613.72;5199772;28;20021;-69
2021/01/16 09:39:36;;;;;;;25.67;9.93;;;;;;;1.07;100.00;102618.72;5196632;28;20394;-68
2021/01/16 09:42:21;;;;;;;21.70;8.75;;;;;;;1.01;100.00;102624.25;5199912;28;20021;-68
2021/01/16 09:44:54;;;;;;;18.48;7.78;;;;;;;1.03;100.00;102620.63;5199458;28;20087;-68
2021/01/16 09:47:26;;;;;;;24.63;10.07;;;;;;;1.06;100.00;102609.06;5198236;28;20060;-68
2021/01/16 09:50:02;;;;;;;23.67;9.38;;;;;;;1.09;100.00;102616.88;5178815;28;20033;-69
2021/01/16 09:52:33;;;;;;;24.73;10.32;;;;;;;1.09;100.00;102603.66;5195631;28;20095;-69
2021/01/16 09:55:15;;;;;;;21.10;9.40;;;;;;;1.10;100.00;102604.50;5199660;28;20037;-68
2021/01/16 09:57:46;;;;;;;21.83;8.88;;;;;;;1.19;100.00;102605.00;5192890;28;20366;-68
2021/01/16 10:00:27;;;;;;;17.80;8.30;;;;;;;1.11;100.00;102596.53;5178793;28;20025;-68
2021/01/16 10:03:02;;;;;;;20.85;8.38;;;;;;;1.16;100.00;102599.00;5178093;28;20462;-69
2021/01/16 10:05:35;;;;;;;26.23;9.45;;;;;;;1.13;100.00;102586.75;5179710;28;20022;-68
2021/01/16 10:08:08;;;;;;;21.05;9.23;;;;;;;1.18;100.00;102598.00;5178601;28;20511;-69
2021/01/16 10:10:47;;;;;;;23.27;8.38;;;;;;;1.15;100.00;102591.97;5184285;28;20028;-68
2021/01/16 10:13:30;;;;;;;22.33;8.73;;;;;;;1.22;100.00;102609.31;5198204;28;20021;-68
2021/01/16 10:16:03;;;;;;;22.77;8.52;;;;;;;1.22;100.00;102604.03;5190564;28;20030;-69
2021/01/16 10:18:34;;;;;;;21.08;9.80;;;;;;;1.29;100.00;102597.53;5165412;28;20024;-68
2021/01/16 10:21:09;;;;;;;21.85;9.18;;;;;;;1.30;100.00;102593.97;5178423;28;20395;-68
2021/01/16 10:23:42;;;;;;;22.87;8.70;;;;;;;1.29;100.00;102595.75;5178265;28;20029;-68
2021/01/16 10:26:16;;;;;;;20.42;8.57;;;;;;;1.32;100.00;102589.50;5178866;28;20682;-69
2021/01/16 10:28:52;;;;;;;21.75;8.25;;;;;;;1.20;100.00;102582.91;5178500;28;20056;-69
2021/01/16 10:31:24;;;;;;;23.05;8.90;;;;;;;1.14;100.00;102585.81;5179653;28;20044;-68
2021/01/16 10:34:07;;;;;;;21.42;9.38;;;;;;;1.21;100.00;102574.09;5177195;28;20026;-68
2021/01/16 10:36:38;;;;;;;21.40;9.02;;;;;;;1.14;100.00;102569.94;5192018;28;20108;-68
2021/01/16 10:39:11;;;;;;;25.83;9.73;;;;;;;1.04;100.00;102580.03;5175322;28;20034;-68
2021/01/16 10:41:45;;;;;;;22.75;10.35;;;;;;;1.14;100.00;102566.44;5179558;28;20080;-69
2021/01/16 10:44:22;;;;;;;26.08;9.18;;;;;;;1.23;100.00;102564.28;5178388;28;20022;-68
2021/01/16 10:46:53;;;;;;;23.92;9.27;;;;;;;1.29;100.00;102564.03;5179060;28;20080;-68
2021/01/16 10:49:25;;;;;;;22.00;9.18;;;;;;;1.26;100.00;102558.03;5177907;28;20026;-68
2021/01/16 10:51:59;;;;;;;22.77;8.77;;;;;;;1.27;100.00;102557.94;5179435;28;20153;-69
2021/01/16 10:54:31;;;;;;;24.67;10.35;;;;;;;1.15;100.00;102553.16;5197349;28;20033;-68
2021/01/16 10:57:04;;;;;;;27.13;10.13;;;;;;;1.19;100.00;102549.47;5199808;28;20025;-68
2021/01/16 10:59:38;;;;;;;31.80;11.85;;;;;;;1.14;100.00;102538.22;5164906;28;20033;-69
2021/01/16 11:02:11;;;;;;;27.52;11.15;;;;;;;1.13;100.00;102538.31;5179236;28;20088;-68
2021/01/16 11:04:46;;;;;;;27.58;11.05;;;;;;;1.16;100.00;102532.91;5188289;28;20456;-68
2021/01/16 11:07:28;;;;;;;21.13;10.05;;;;;;;0.98;100.00;102523.94;5182497;28;20499;-68
2021/01/16 11:10:06;;;;;;;31.08;11.80;;;;;;;1.07;100.00;102515.63;5190218;28;20123;-68
2021/01/16 11:12:38;;;;;;;21.33;8.93;;;;;;;1.02;100.00;102513.19;5199511;28;20096;-68
2021/01/16 11:15:19;;;;;;;24.77;9.95;;;;;;;1.01;100.00;102511.47;5183317;28;20036;-68
2021/01/16 11:17:56;;;;;;;22.65;9.85;;;;;;;1.09;99.45;102502.34;5168800;28;20037;-69
2021/01/16 11:20:30;;;;;;;27.98;10.05;;;;;;;0.93;100.00;102495.06;5196483;28;20039;-68
2021/01/16 11:23:04;;;;;;;21.20;9.77;;;;;;;1.10;100.00;102499.63;5201181;28;20522;-68
2021/01/16 11:25:42;;;;;;;25.08;10.00;;;;;;;1.13;100.00;102493.38;5182509;28;20109;-69
2021/01/16 11:28:19;;;;;;;24.52;10.18;;;;;;;1.12;100.00;102483.72;5181711;28;20030;-68
2021/01/16 11:31:02;;;;;;;24.60;9.85;;;;;;;1.03;100.00;102475.25;5192984;28;20028;-69
2021/01/16 11:33:34;;;;;;;22.95;8.98;;;;;;;1.07;100.00;102462.78;5194956;28;20447;-68
2021/01/16 11:36:13;;;;;;;23.95;9.82;;;;;;;1.04;100.00;102462.88;5195514;28;20159;-68
2021/01/16 11:38:45;;;;;;;22.77;9.77;;;;;;;0.91;100.00;102456.44;5188276;28;20033;-68